Baker, Idaho
Current Conditions -  °F | °C
As of 8:55 PM on Saturday 20 Dec 2014 (Local Time) from KSMN Reporting Station
Scattered Clouds Scattered Clouds  
Wind Chill: 31°   Ceiling: Unl
Heat Index: 39°   Visibility: 10mi
Dew Point: 30°   Wind: 15mph
Humidity: 70%   Direction: 160°SSE
Pressure: 29.79"   Gusts: NA
Location:  45.092°N, 113.703°W
Report Text: KSMN 210355Z AUTO 16013KT 10SM SCT060 04/M01 A2979 RMK AO1
Loading
Personal Weather Stations






























Interactive Weather Map New forecast layout! Learn more

10-Day Weather Forecast

Advertisements
Track Severe Weather on mobile